createdAt,value
2019-03-12T00:00:34.627Z,2.90
2019-03-12T00:03:03.211Z,3.00
2019-03-12T00:05:31.504Z,3.00
2019-03-12T00:08:00.760Z,3.00
2019-03-12T00:10:29.389Z,3.10
2019-03-12T00:12:57.794Z,3.10
2019-03-12T00:15:26.083Z,3.10
2019-03-12T00:17:54.356Z,3.10
2019-03-12T00:20:22.647Z,3.00
2019-03-12T00:22:50.919Z,2.90
2019-03-12T00:25:19.479Z,2.90
2019-03-12T00:27:47.754Z,2.90
2019-03-12T00:30:16.110Z,2.90
2019-03-12T00:32:44.391Z,2.90
2019-03-12T00:35:13.116Z,2.90
2019-03-12T00:37:41.379Z,3.10
2019-03-12T00:40:10.192Z,3.10
2019-03-12T00:42:38.794Z,3.00
2019-03-12T00:45:09.842Z,3.10
2019-03-12T00:47:38.407Z,3.00
2019-03-12T00:50:09.055Z,3.00
2019-03-12T00:52:37.399Z,2.90
2019-03-12T00:55:07.664Z,2.90
2019-03-12T00:57:36.341Z,3.00
2019-03-12T01:00:19.163Z,3.00
2019-03-12T01:02:47.448Z,2.90
2019-03-12T01:05:15.715Z,3.00
2019-03-12T01:07:45.119Z,2.90
2019-03-12T01:10:16.354Z,2.90
2019-03-12T01:12:44.967Z,3.00
2019-03-12T01:15:14.351Z,3.00
2019-03-12T01:17:42.961Z,2.80
2019-03-12T01:20:12.967Z,2.70
2019-03-12T01:22:41.568Z,2.80
2019-03-12T01:25:11.276Z,2.60
2019-03-12T01:27:40.002Z,2.70
2019-03-12T01:30:16.572Z,2.80
2019-03-12T01:32:45.004Z,2.70
2019-03-12T01:35:13.269Z,2.80
2019-03-12T01:37:42.806Z,2.90
2019-03-12T01:40:13.848Z,3.00
2019-03-12T01:42:42.146Z,3.00
2019-03-12T01:45:14.570Z,3.00
2019-03-12T01:47:44.422Z,3.00
2019-03-12T01:50:14.086Z,3.10
2019-03-12T01:52:42.376Z,3.10
2019-03-12T01:55:16.241Z,3.00
2019-03-12T01:57:45.726Z,3.10
2019-03-12T02:00:16.887Z,3.10
2019-03-12T02:02:45.174Z,3.10
2019-03-12T02:05:13.438Z,3.00
2019-03-12T02:07:42.044Z,2.90
2019-03-12T02:10:11.750Z,2.80
2019-03-12T02:12:40.115Z,2.90
2019-03-12T02:15:14.224Z,2.90
2019-03-12T02:17:43.963Z,2.70
2019-03-12T02:20:14.524Z,2.60
2019-03-12T02:22:43.091Z,2.40
2019-03-12T02:25:14.056Z,2.10
2019-03-12T02:27:42.627Z,2.00
2019-03-12T02:30:18.591Z,1.80
2019-03-12T02:32:46.964Z,1.70
2019-03-12T02:35:15.472Z,1.60
2019-03-12T02:37:45.276Z,1.40
2019-03-12T02:40:14.165Z,1.30
2019-03-12T02:42:42.848Z,1.00
2019-03-12T02:45:13.590Z,1.00
2019-03-12T02:47:41.953Z,1.00
2019-03-12T02:50:12.330Z,1.10
2019-03-12T02:52:41.400Z,1.10
2019-03-12T02:55:09.815Z,1.10
2019-03-12T02:57:38.467Z,1.10
2019-03-12T03:00:16.856Z,1.20
2019-03-12T03:02:45.473Z,1.20
2019-03-12T03:05:14.160Z,1.30
2019-03-12T03:07:51.749Z,1.30
2019-03-12T03:10:20.357Z,1.40
2019-03-12T03:12:48.703Z,1.60
2019-03-12T03:15:23.689Z,1.70
2019-03-12T03:17:53.150Z,1.60
2019-03-12T03:20:21.487Z,1.70
2019-03-12T03:22:49.852Z,1.70
2019-03-12T03:25:18.420Z,1.70
2019-03-12T03:27:47.023Z,1.60
2019-03-12T03:30:20.619Z,1.60
2019-03-12T03:32:48.977Z,1.70
2019-03-12T03:35:17.707Z,1.70
2019-03-12T03:37:46.368Z,1.70
2019-03-12T03:40:17.437Z,1.60
2019-03-12T03:42:46.110Z,1.60
2019-03-12T03:45:14.984Z,1.50
2019-03-12T03:47:43.341Z,1.50
2019-03-12T03:50:16.444Z,1.50
2019-03-12T03:52:44.809Z,1.40
2019-03-12T03:55:18.731Z,1.40
2019-03-12T03:57:48.354Z,1.50
2019-03-12T04:00:40.721Z,1.50
2019-03-12T04:03:09.084Z,1.40
2019-03-12T04:05:37.369Z,1.50
2019-03-12T04:08:05.725Z,1.60
2019-03-12T04:10:33.994Z,1.70
2019-03-12T04:13:03.854Z,1.80
2019-03-12T04:15:32.295Z,1.80
2019-03-12T04:18:00.681Z,1.80
2019-03-12T04:20:29.008Z,1.70
2019-03-12T04:22:57.352Z,1.80
2019-03-12T04:25:25.976Z,1.80
2019-03-12T04:27:54.320Z,1.90
2019-03-12T04:30:22.950Z,1.90
2019-03-12T04:32:51.218Z,1.80
2019-03-12T04:35:30.971Z,1.80
2019-03-12T04:37:59.491Z,1.80
2019-03-12T04:40:27.778Z,1.80
2019-03-12T04:42:57.510Z,1.80
2019-03-12T04:45:25.796Z,1.80
2019-03-12T04:47:54.426Z,1.70
2019-03-12T04:50:23.013Z,1.70
2019-03-12T04:52:51.547Z,1.70
2019-03-12T04:55:19.841Z,1.60
2019-03-12T04:57:48.180Z,1.60
2019-03-12T05:00:20.806Z,1.60
2019-03-12T05:02:49.075Z,1.50
2019-03-12T05:05:17.707Z,1.70
2019-03-12T05:07:45.980Z,1.80
2019-03-12T05:10:17.614Z,1.80
2019-03-12T05:12:46.239Z,1.70
2019-03-12T05:15:15.972Z,1.60
2019-03-12T05:17:45.336Z,1.70
2019-03-12T05:20:14.633Z,1.80
2019-03-12T05:22:42.898Z,1.80
2019-03-12T05:25:14.758Z,1.80
2019-03-12T05:27:43.168Z,1.90
2019-03-12T05:30:19.767Z,1.90
2019-03-12T05:32:48.452Z,1.90
2019-03-12T05:35:17.197Z,1.80
2019-03-12T05:37:45.835Z,1.70
2019-03-12T05:40:15.440Z,1.70
2019-03-12T05:42:43.783Z,1.70
2019-03-12T05:45:18.311Z,1.60
2019-03-12T05:47:46.676Z,1.60
2019-03-12T05:50:20.135Z,1.70
2019-03-12T05:52:49.353Z,1.60
2019-03-12T05:55:18.236Z,1.70
2019-03-12T05:57:46.920Z,1.70
2019-03-12T06:00:17.120Z,1.80
2019-03-12T06:02:45.456Z,1.80
2019-03-12T06:05:13.720Z,1.90
2019-03-12T06:07:42.016Z,1.80
2019-03-12T06:10:14.767Z,1.90
2019-03-12T06:12:43.423Z,1.90
2019-03-12T06:15:16.543Z,1.90
2019-03-12T06:17:44.836Z,1.90
2019-03-12T06:20:14.296Z,2.00
2019-03-12T06:22:42.932Z,2.00
2019-03-12T06:25:11.268Z,1.90
2019-03-12T06:27:39.907Z,1.90
2019-03-12T06:30:16.708Z,1.80
2019-03-12T06:33:18.315Z,1.70
2019-03-12T06:35:48.243Z,1.80
2019-03-12T06:38:18.463Z,1.80
2019-03-12T06:40:48.700Z,1.80
2019-03-12T06:43:22.787Z,1.80
2019-03-12T06:46:11.443Z,1.80
2019-03-12T06:48:44.654Z,1.90
2019-03-12T06:51:17.615Z,2.10
2019-03-12T06:53:56.687Z,2.30
2019-03-12T06:56:32.512Z,2.40
2019-03-12T06:59:05.366Z,2.50
2019-03-12T07:01:45.755Z,2.40
2019-03-12T07:04:18.405Z,2.50
2019-03-12T07:06:48.765Z,2.50
2019-03-12T07:09:18.983Z,2.70
2019-03-12T07:11:56.175Z,3.10
2019-03-12T07:14:32.435Z,3.10
2019-03-12T07:17:02.356Z,3.20
2019-03-12T07:19:48.749Z,3.40
2019-03-12T07:22:35.059Z,3.60
2019-03-12T07:25:21.864Z,3.80
2019-03-12T07:27:52.062Z,3.90
2019-03-12T07:30:38.508Z,4.20
2019-03-12T07:33:08.434Z,4.70
2019-03-12T07:35:41.071Z,4.50
2019-03-12T07:38:18.351Z,4.40
2019-03-12T07:40:48.331Z,5.20
2019-03-12T07:43:21.251Z,4.70
2019-03-12T07:45:57.152Z,4.40
2019-03-12T07:48:37.468Z,4.00
2019-03-12T07:51:10.428Z,3.80
2019-03-12T07:53:58.627Z,4.20
2019-03-12T07:56:21.342Z,4.40
2019-03-12T07:58:54.007Z,5.20
2019-03-12T08:01:35.722Z,5.00
2019-03-12T08:04:17.899Z,7.40
2019-03-12T08:06:55.007Z,7.20
2019-03-12T08:09:25.225Z,7.90
2019-03-12T08:12:00.925Z,8.30
2019-03-12T08:14:34.087Z,8.00
2019-03-12T08:17:07.371Z,8.40
2019-03-12T08:19:46.508Z,11.40
2019-03-12T08:22:19.588Z,10.90
2019-03-12T08:24:52.243Z,10.20
2019-03-12T08:27:25.958Z,9.60
2019-03-12T08:29:57.622Z,9.80
2019-03-12T08:32:43.937Z,9.60
2019-03-12T08:35:26.144Z,8.90
2019-03-12T08:37:56.112Z,9.60
2019-03-12T08:40:26.026Z,8.80
2019-03-12T08:42:55.967Z,8.90
2019-03-12T08:45:34.638Z,8.40
2019-03-12T08:48:16.527Z,8.60
2019-03-12T08:50:55.715Z,8.70
2019-03-12T08:53:25.651Z,9.20
2019-03-12T08:56:04.763Z,10.20
2019-03-12T08:58:53.467Z,9.90
2019-03-12T09:01:26.183Z,8.90
2019-03-12T09:04:12.675Z,9.20
2019-03-12T09:07:05.053Z,8.50
2019-03-12T09:09:50.322Z,8.00
2019-03-12T09:12:22.931Z,7.20
2019-03-12T09:14:55.827Z,8.80
2019-03-12T09:17:28.832Z,9.80
2019-03-12T09:20:04.666Z,8.40
2019-03-12T09:22:43.671Z,9.30
2019-03-12T09:25:22.954Z,8.60
2019-03-12T09:28:03.123Z,9.10
2019-03-12T09:30:33.420Z,8.50
2019-03-12T09:33:12.157Z,7.70
2019-03-12T09:35:58.260Z,9.00
2019-03-12T09:38:31.356Z,9.20
2019-03-12T09:41:01.287Z,7.70
2019-03-12T09:43:34.117Z,6.30
2019-03-12T09:46:07.420Z,6.30
2019-03-12T09:48:53.881Z,6.10
2019-03-12T09:51:24.135Z,5.90
2019-03-12T09:54:09.130Z,7.00
2019-03-12T09:56:53.383Z,6.60
2019-03-12T09:59:23.295Z,7.00
2019-03-12T10:02:11.671Z,6.50
2019-03-12T10:04:57.790Z,7.40
2019-03-12T10:07:33.380Z,7.70
2019-03-12T10:10:18.340Z,8.00
2019-03-12T10:12:47.565Z,7.60
2019-03-12T10:15:17.503Z,6.90
2019-03-12T10:17:54.053Z,7.10
2019-03-12T10:20:33.325Z,8.70
2019-03-12T10:23:20.127Z,7.50
2019-03-12T10:25:59.234Z,7.50
2019-03-12T10:28:32.552Z,7.70
2019-03-12T10:31:18.820Z,8.20
2019-03-12T10:33:58.087Z,8.60
2019-03-12T10:36:31.272Z,7.10
2019-03-12T10:39:54.710Z,6.50
2019-03-12T10:42:40.383Z,6.90
2019-03-12T10:45:27.291Z,6.30
2019-03-12T10:47:59.843Z,8.10
2019-03-12T10:50:28.455Z,8.10
2019-03-12T10:52:56.719Z,9.00
2019-03-12T10:55:25.021Z,9.50
2019-03-12T10:57:53.608Z,9.60
2019-03-12T11:00:21.874Z,9.80
2019-03-12T11:02:50.170Z,10.10
2019-03-12T11:05:18.815Z,10.00
2019-03-12T11:07:47.103Z,9.60
2019-03-12T11:10:19.524Z,9.40
2019-03-12T11:12:48.312Z,10.60
2019-03-12T11:15:17.109Z,10.90
2019-03-12T11:17:49.819Z,10.70
2019-03-12T11:20:19.558Z,9.20
2019-03-12T11:22:48.195Z,8.50
2019-03-12T11:25:26.689Z,7.90
2019-03-12T11:27:47.203Z,8.10
2019-03-12T11:30:19.411Z,8.40
2019-03-12T11:32:47.703Z,7.40
2019-03-12T11:35:16.243Z,9.30
2019-03-12T11:37:44.834Z,9.90
2019-03-12T11:40:18.396Z,9.50
2019-03-12T11:42:46.829Z,10.10
2019-03-12T11:45:18.389Z,8.60
2019-03-12T11:47:45.534Z,9.30
2019-03-12T11:50:22.587Z,8.60
2019-03-12T11:52:56.187Z,9.90
2019-03-12T11:55:21.222Z,9.80
2019-03-12T11:57:49.595Z,10.00
2019-03-12T12:00:22.760Z,9.20
2019-03-12T12:03:00.002Z,9.60
2019-03-12T12:05:21.042Z,8.60
2019-03-12T12:07:49.402Z,8.80
2019-03-12T12:10:19.299Z,9.10
2019-03-12T12:12:47.660Z,9.90
2019-03-12T12:15:16.179Z,10.70
2019-03-12T12:17:44.959Z,12.30
2019-03-12T12:20:14.530Z,11.90
2019-03-12T12:22:43.264Z,10.80
2019-03-12T12:25:19.723Z,10.60
2019-03-12T12:27:48.014Z,10.20
2019-03-12T12:30:19.867Z,11.10
2019-03-12T12:32:48.457Z,10.70
2019-03-12T12:35:17.727Z,11.20
2019-03-12T12:37:46.357Z,11.50
2019-03-12T12:40:22.207Z,10.20
2019-03-12T12:42:50.514Z,10.70
2019-03-12T12:45:22.152Z,11.30
2019-03-12T12:47:50.520Z,10.60
2019-03-12T12:50:19.119Z,9.70
2019-03-12T12:52:47.418Z,10.20
2019-03-12T12:55:16.296Z,10.30
2019-03-12T12:57:44.875Z,9.60
2019-03-12T13:00:19.051Z,9.50
2019-03-12T13:02:47.436Z,9.70
2019-03-12T13:05:15.699Z,10.10
2019-03-12T13:07:44.351Z,9.80
2019-03-12T13:10:29.971Z,9.70
2019-03-12T13:12:58.617Z,9.30
2019-03-12T13:15:26.891Z,10.00
2019-03-12T13:17:55.263Z,10.70
2019-03-12T13:20:23.545Z,11.20
2019-03-12T13:22:52.247Z,10.40
2019-03-12T13:25:20.590Z,10.10
2019-03-12T13:27:49.226Z,9.70
2019-03-12T13:30:24.363Z,9.80
2019-03-12T13:32:53.855Z,9.60
2019-03-12T13:35:22.127Z,9.50
2019-03-12T13:37:50.415Z,10.40
2019-03-12T13:40:21.085Z,10.60
2019-03-12T13:42:49.563Z,10.20
2019-03-12T13:45:42.204Z,9.90
2019-03-12T13:48:10.905Z,9.10
2019-03-12T13:50:39.603Z,8.90
2019-03-12T13:53:08.255Z,8.80
2019-03-12T13:55:37.526Z,9.00
2019-03-12T13:58:06.155Z,9.10
2019-03-12T14:00:34.744Z,10.10
2019-03-12T14:03:03.087Z,10.60
2019-03-12T14:05:31.439Z,10.20
2019-03-12T14:07:59.735Z,10.10
2019-03-12T14:10:28.487Z,9.90
2019-03-12T14:12:57.891Z,10.00
2019-03-12T14:15:29.034Z,9.20
2019-03-12T14:17:57.624Z,9.00
2019-03-12T14:20:52.520Z,9.20
2019-03-12T14:23:32.651Z,9.30
2019-03-12T14:26:01.255Z,9.00
2019-03-12T14:28:29.873Z,8.90
2019-03-12T14:30:58.216Z,8.60
2019-03-12T14:33:26.520Z,8.60
2019-03-12T14:35:54.846Z,8.70
2019-03-12T14:38:23.137Z,8.50
2019-03-12T14:40:51.756Z,8.40
2019-03-12T14:43:20.048Z,8.20
2019-03-12T14:45:50.158Z,8.20
2019-03-12T14:48:42.489Z,8.40
2019-03-12T14:51:17.044Z,8.30
2019-03-12T14:53:48.742Z,8.20
2019-03-12T14:56:17.007Z,8.20
2019-03-12T14:58:45.302Z,8.30
2019-03-12T15:01:13.643Z,8.40
2019-03-12T15:03:41.934Z,8.20
2019-03-12T15:06:10.207Z,8.50
2019-03-12T15:08:38.768Z,8.30
2019-03-12T15:11:07.027Z,8.00
2019-03-12T15:13:35.318Z,8.10
2019-03-12T15:16:03.592Z,8.10
2019-03-12T15:18:31.884Z,8.00
2019-03-12T15:21:00.155Z,8.00
2019-03-12T15:23:28.440Z,7.90
2019-03-12T15:25:56.707Z,7.80
2019-03-12T15:28:24.994Z,7.70
2019-03-12T15:30:53.258Z,7.80
2019-03-12T15:33:21.544Z,7.80
2019-03-12T15:35:50.167Z,7.80
2019-03-12T15:38:18.756Z,7.80
2019-03-12T15:40:47.023Z,7.80
2019-03-12T15:43:15.624Z,7.80
2019-03-12T15:45:43.896Z,7.70
2019-03-12T15:48:12.187Z,7.70
2019-03-12T15:50:40.776Z,7.60
2019-03-12T15:53:09.067Z,7.60
2019-03-12T15:55:37.335Z,7.60
2019-03-12T15:58:05.599Z,7.60
2019-03-12T16:00:34.208Z,7.60
2019-03-12T16:03:02.791Z,7.60
2019-03-12T16:05:31.050Z,7.60
2019-03-12T16:07:59.310Z,7.60
2019-03-12T16:10:27.953Z,7.70
2019-03-12T16:12:56.627Z,7.60
2019-03-12T16:15:24.920Z,7.60
2019-03-12T16:17:53.184Z,7.60
2019-03-12T16:20:22.712Z,7.60
2019-03-12T16:22:51.016Z,7.60
2019-03-12T16:25:19.571Z,7.60
2019-03-12T16:27:47.932Z,7.50
2019-03-12T16:30:18.421Z,7.60
2019-03-12T16:32:46.975Z,7.60
2019-03-12T16:35:15.616Z,7.60
2019-03-12T16:37:44.259Z,7.70
2019-03-12T16:40:18.691Z,7.60
2019-03-12T16:42:47.029Z,7.60
2019-03-12T16:45:19.939Z,7.60
2019-03-12T16:47:48.531Z,7.60
2019-03-12T16:50:18.036Z,7.70
2019-03-12T16:52:46.311Z,7.60
2019-03-12T16:55:16.205Z,7.60
2019-03-12T16:57:44.544Z,7.60
2019-03-12T17:00:19.048Z,7.50
2019-03-12T17:02:47.310Z,7.40
2019-03-12T17:05:15.915Z,7.40
2019-03-12T17:07:44.178Z,7.40
2019-03-12T17:10:17.550Z,7.40
2019-03-12T17:12:45.949Z,7.40
2019-03-12T17:15:16.308Z,7.40
2019-03-12T17:17:44.891Z,7.30
2019-03-12T17:20:14.624Z,7.30
2019-03-12T17:22:43.292Z,7.30
2019-03-12T17:25:11.847Z,7.30
2019-03-12T17:27:40.479Z,7.20
2019-03-12T17:30:19.411Z,7.20
2019-03-12T17:32:47.745Z,7.20
2019-03-12T17:35:38.539Z,7.20
2019-03-12T17:38:07.169Z,7.20
2019-03-12T17:40:35.527Z,7.20
2019-03-12T17:43:04.135Z,7.20
2019-03-12T17:45:35.490Z,7.30
2019-03-12T17:48:03.894Z,7.30
2019-03-12T17:50:32.183Z,7.30
2019-03-12T17:53:00.452Z,7.20
2019-03-12T17:55:28.744Z,7.20
2019-03-12T17:57:57.081Z,7.10
2019-03-12T18:00:29.911Z,7.00
2019-03-12T18:02:58.467Z,7.10
2019-03-12T18:05:27.064Z,7.00
2019-03-12T18:07:55.403Z,7.10
2019-03-12T18:10:24.027Z,7.30
2019-03-12T18:12:52.623Z,7.20
2019-03-12T18:15:21.828Z,7.30
2019-03-12T18:17:50.507Z,7.30
2019-03-12T18:20:23.397Z,7.30
2019-03-12T18:22:51.698Z,7.40
2019-03-12T18:25:32.033Z,7.50
2019-03-12T18:28:00.621Z,7.50
2019-03-12T18:30:29.347Z,7.40
2019-03-12T18:32:57.690Z,7.50
2019-03-12T18:35:27.495Z,7.50
2019-03-12T18:37:55.767Z,7.50
2019-03-12T18:40:25.812Z,7.40
2019-03-12T18:42:54.091Z,7.40
2019-03-12T18:45:30.713Z,7.40
2019-03-12T18:47:59.252Z,7.40
2019-03-12T18:50:27.717Z,7.30
2019-03-12T18:52:55.981Z,7.40
2019-03-12T18:55:38.413Z,7.30
2019-03-12T18:58:07.562Z,7.30
2019-03-12T19:00:36.891Z,7.30
2019-03-12T19:03:05.620Z,7.20
2019-03-12T19:05:35.332Z,7.20
2019-03-12T19:08:03.598Z,7.10
2019-03-12T19:10:32.299Z,7.10
2019-03-12T19:13:00.563Z,7.10
2019-03-12T19:15:28.863Z,6.90
2019-03-12T19:17:57.556Z,6.90
2019-03-12T19:20:25.843Z,6.90
2019-03-12T19:22:54.419Z,6.80
2019-03-12T19:25:33.852Z,6.80
2019-03-12T19:28:02.126Z,6.70
2019-03-12T19:30:30.478Z,6.70
2019-03-12T19:33:00.383Z,6.80
2019-03-12T19:35:31.436Z,6.70
2019-03-12T19:38:19.238Z,6.70
2019-03-12T19:40:50.675Z,6.70
2019-03-12T19:43:19.258Z,6.60
2019-03-12T19:45:47.843Z,6.60
2019-03-12T19:48:17.551Z,6.60
2019-03-12T19:50:46.143Z,6.60
2019-03-12T19:53:15.553Z,6.70
2019-03-12T19:55:49.716Z,6.70
2019-03-12T19:58:19.790Z,6.80
2019-03-12T20:00:48.255Z,6.70
2019-03-12T20:03:16.856Z,6.70
2019-03-12T20:05:45.216Z,6.70
2019-03-12T20:08:13.841Z,6.50
2019-03-12T20:10:54.471Z,6.60
2019-03-12T20:13:59.025Z,6.70
2019-03-12T20:16:42.563Z,6.70
2019-03-12T20:19:32.054Z,6.50
2019-03-12T20:22:37.015Z,6.70
2019-03-12T20:25:33.126Z,6.70
2019-03-12T20:28:27.284Z,6.90
2019-03-12T20:31:15.584Z,7.00
2019-03-12T20:34:14.827Z,6.90
2019-03-12T20:37:07.455Z,6.80
2019-03-12T20:39:54.074Z,7.00
2019-03-12T20:42:45.367Z,7.00
2019-03-12T20:45:48.954Z,7.00
2019-03-12T20:48:43.867Z,7.00
2019-03-12T20:51:33.812Z,7.00
2019-03-12T20:54:37.607Z,7.10
2019-03-12T20:57:12.539Z,7.10
2019-03-12T21:00:17.692Z,7.00
2019-03-12T21:03:12.838Z,7.10
2019-03-12T21:06:17.802Z,7.10
2019-03-12T21:09:23.011Z,7.20
2019-03-12T21:12:08.899Z,7.10
2019-03-12T21:15:13.995Z,7.20
2019-03-12T21:18:14.935Z,7.20
2019-03-12T21:21:02.966Z,7.20
2019-03-12T21:23:53.037Z,7.10
2019-03-12T21:26:36.399Z,7.10
2019-03-12T21:29:27.577Z,7.10
2019-03-12T21:31:56.256Z,7.20
2019-03-12T21:34:24.556Z,7.00
2019-03-12T21:36:53.249Z,7.00
2019-03-12T21:39:21.915Z,6.90
2019-03-12T21:41:50.186Z,6.90
2019-03-12T21:44:18.539Z,6.70
2019-03-12T21:46:47.019Z,6.70
2019-03-12T21:49:15.307Z,6.70
2019-03-12T21:51:43.935Z,6.60
2019-03-12T21:54:12.523Z,6.50
2019-03-12T21:56:40.788Z,6.60
2019-03-12T21:59:09.400Z,6.60
2019-03-12T22:01:37.992Z,6.40
2019-03-12T22:04:06.278Z,6.00
2019-03-12T22:06:34.550Z,6.00
2019-03-12T22:09:04.376Z,6.20
2019-03-12T22:11:32.703Z,6.20
2019-03-12T22:14:01.319Z,6.50
2019-03-12T22:16:29.588Z,6.60
2019-03-12T22:18:57.875Z,6.90
2019-03-12T22:21:27.853Z,7.00
2019-03-12T22:23:57.784Z,6.80
2019-03-12T22:26:26.126Z,6.70
2019-03-12T22:28:54.695Z,6.70
2019-03-12T22:31:23.284Z,7.00
2019-03-12T22:33:51.571Z,6.90
2019-03-12T22:36:19.836Z,6.90
2019-03-12T22:38:48.135Z,6.90
2019-03-12T22:41:16.823Z,6.70
2019-03-12T22:43:45.108Z,6.70
2019-03-12T22:46:13.370Z,6.70
2019-03-12T22:48:41.972Z,6.70
2019-03-12T22:51:10.555Z,6.70
2019-03-12T22:53:38.819Z,6.80
2019-03-12T22:56:07.437Z,6.80
2019-03-12T22:58:36.119Z,6.80
2019-03-12T23:01:04.709Z,6.70
2019-03-12T23:03:33.304Z,6.70
2019-03-12T23:06:01.997Z,6.80
2019-03-12T23:08:30.679Z,7.00
2019-03-12T23:10:58.964Z,7.20
2019-03-12T23:13:27.231Z,7.20
2019-03-12T23:15:55.523Z,7.10
2019-03-12T23:18:24.047Z,7.20
2019-03-12T23:20:52.330Z,7.10
2019-03-12T23:23:20.878Z,7.10
2019-03-12T23:25:49.574Z,7.20
2019-03-12T23:28:17.831Z,7.30
2019-03-12T23:30:46.437Z,7.20
2019-03-12T23:33:15.128Z,7.30
2019-03-12T23:35:43.714Z,7.50
2019-03-12T23:38:12.303Z,7.80
2019-03-12T23:40:40.591Z,7.70
2019-03-12T23:43:09.167Z,7.60
2019-03-12T23:45:37.760Z,7.50
2019-03-12T23:48:06.344Z,7.40
2019-03-12T23:50:34.935Z,7.00
2019-03-12T23:53:03.204Z,6.80
2019-03-12T23:55:31.761Z,6.80
2019-03-12T23:58:00.094Z,6.70
